Time;durP1;ratioP1;P1;durP2;ratioP2;P2;SDS_P1;SDS_P2;PMS_P1;PMS_P2;Temp;Humidity;BMP_temperature;BMP_pressure;BME280_temperature;BME280_humidity;BME280_pressure;Samples;Min_cycle;Max_cycle;Signal;HPM_P1;HPM_P2
2024/03/08 00:00:14;;;;;;;;;;;;;;;2.06;56.00;99986.04;109521;1254;59858;-69
2024/03/08 00:02:44;;;;;;;;;;;;;;;2.04;55.98;99985.56;109648;1254;74686;-70
2024/03/08 00:05:12;;;;;;;;;;;;;;;2.01;56.12;99988.34;109568;1251;67362;-70
2024/03/08 00:07:40;;;;;;;;;;;;;;;2.14;55.79;99981.59;109221;1254;70487;-70
2024/03/08 00:10:11;;;;;;;;;;;;;;;2.16;55.70;99977.58;109565;1253;60442;-69
2024/03/08 00:12:44;;;;;;;;;;;;;;;2.17;55.55;99976.41;109607;1255;59052;-70
2024/03/08 00:15:14;;;;;;;;;;;;;;;2.20;55.64;99977.37;109598;1254;73173;-70
2024/03/08 00:17:43;;;;;;;;;;;;;;;2.26;55.49;99975.36;109661;1254;68495;-71
2024/03/08 00:20:11;;;;;;;;;;;;;;;2.10;55.86;99971.95;109185;1254;72763;-69
2024/03/08 00:22:38;;;;;;;;;;;;;;;2.04;56.19;99970.75;109536;1254;60584;-70
2024/03/08 00:25:09;;;;;;;;;;;;;;;2.23;55.79;99974.30;109589;1257;58826;-70
2024/03/08 00:27:38;;;;;;;;;;;;;;;2.13;56.01;99968.27;109220;1254;74748;-70
2024/03/08 00:30:06;;;;;;;;;;;;;;;2.34;55.49;99972.95;109523;1258;67760;-69
2024/03/08 00:32:34;;;;;;;;;;;;;;;2.29;55.62;99968.91;109511;1253;71438;-70
2024/03/08 00:35:01;;;;;;;;;;;;;;;2.30;55.57;99967.40;109527;1255;61723;-70
2024/03/08 00:37:29;;;;;;;;;;;;;;;2.25;55.73;99965.89;109561;1252;59861;-70
2024/03/08 00:39:56;;;;;;;;;;;;;;;2.15;56.06;99960.22;109307;1254;73400;-70
2024/03/08 00:42:24;;;;;;;;;;;;;;;2.24;55.87;99961.32;109665;1252;68611;-69
2024/03/08 00:47:51;;;;;;;;;;;;;;;2.10;56.29;99955.77;102775;1292;599484;-74
2024/03/08 00:50:19;;;;;;;;;;;;;;;1.92;56.73;99954.32;104786;1266;61850;-70
2024/03/08 00:52:47;;;;;;;;;;;;;;;1.81;57.25;99954.59;104780;1266;59298;-71
2024/03/08 00:55:14;;;;;;;;;;;;;;;1.82;57.43;99947.00;104802;1268;72396;-72
2024/03/08 00:57:42;;;;;;;;;;;;;;;1.91;57.30;99951.04;104807;1267;68084;-71
2024/03/08 01:00:11;;;;;;;;;;;;;;;1.94;57.17;99950.14;104878;1266;72780;-73
2024/03/08 01:02:40;;;;;;;;;;;;;;;1.92;57.25;99947.89;104852;1265;200427;-74
2024/03/08 01:05:08;;;;;;;;;;;;;;;1.79;57.90;99946.19;104843;1274;60418;-71
2024/03/08 01:07:36;;;;;;;;;;;;;;;1.86;57.60;99943.71;104975;1266;71337;-70
2024/03/08 01:10:04;;;;;;;;;;;;;;;1.83;57.79;99938.52;105044;1266;68961;-70
2024/03/08 01:12:31;;;;;;;;;;;;;;;1.86;57.51;99935.53;104953;1268;71856;-70
2024/03/08 01:14:59;;;;;;;;;;;;;;;1.74;57.92;99938.57;104990;1266;61874;-69
2024/03/08 01:17:27;;;;;;;;;;;;;;;1.74;58.11;99936.86;105017;1268;60187;-70
2024/03/08 01:19:55;;;;;;;;;;;;;;;1.71;58.45;99937.42;105025;1266;73094;-69
2024/03/08 01:22:22;;;;;;;;;;;;;;;1.62;58.73;99933.87;104985;1268;67860;-68
2024/03/08 01:24:50;;;;;;;;;;;;;;;1.65;58.92;99936.96;105600;1257;72811;-75
2024/03/08 01:27:17;;;;;;;;;;;;;;;1.69;58.71;99934.45;105311;1258;61826;-68
2024/03/08 01:29:45;;;;;;;;;;;;;;;1.74;58.64;99933.02;105358;1257;59613;-67
2024/03/08 01:32:13;;;;;;;;;;;;;;;1.81;58.49;99934.08;105417;1257;73398;-69
2024/03/08 01:34:40;;;;;;;;;;;;;;;1.89;58.20;99932.91;105428;1260;68529;-67
2024/03/08 01:37:09;;;;;;;;;;;;;;;1.86;58.17;99931.12;105292;1260;71632;-66
2024/03/08 01:39:36;;;;;;;;;;;;;;;1.81;58.31;99930.70;105259;1260;60750;-68
2024/03/08 01:42:04;;;;;;;;;;;;;;;1.78;58.55;99923.10;105278;1264;60007;-69
2024/03/08 01:44:31;;;;;;;;;;;;;;;1.81;58.48;99920.15;104943;1269;73632;-65
2024/03/08 01:46:59;;;;;;;;;;;;;;;1.83;58.49;99917.45;105311;1260;67942;-66
2024/03/08 01:49:27;;;;;;;;;;;;;;;1.77;58.51;99915.80;105214;1262;71489;-69
2024/03/08 01:51:56;;;;;;;;;;;;;;;1.78;58.61;99911.04;105305;1265;60447;-68
2024/03/08 01:54:24;;;;;;;;;;;;;;;1.77;58.55;99909.81;105362;1258;59797;-71
2024/03/08 01:56:53;;;;;;;;;;;;;;;1.76;58.60;99913.68;105078;1264;72164;-71
2024/03/08 01:59:20;;;;;;;;;;;;;;;1.78;58.89;99915.03;105075;1259;69011;-65
2024/03/08 02:01:48;;;;;;;;;;;;;;;1.85;58.71;99915.52;105251;1260;72831;-72
2024/03/08 02:04:16;;;;;;;;;;;;;;;1.88;58.59;99915.92;105229;1259;62027;-65
2024/03/08 02:06:44;;;;;;;;;;;;;;;1.83;58.63;99914.07;105168;1265;60088;-69
2024/03/08 02:09:12;;;;;;;;;;;;;;;1.75;58.73;99907.15;105257;1264;73781;-66
2024/03/08 02:11:41;;;;;;;;;;;;;;;1.72;59.18;99905.66;105248;1265;66907;-66
2024/03/08 02:14:09;;;;;;;;;;;;;;;1.62;59.70;99904.08;105327;1265;72690;-67
2024/03/08 02:16:37;;;;;;;;;;;;;;;1.75;59.14;99900.39;104845;1256;1003561;-67
2024/03/08 02:19:09;;;;;;;;;;;;;;;1.72;59.10;99898.84;105501;1262;59925;-64
2024/03/08 02:21:37;;;;;;;;;;;;;;;1.67;58.95;99899.84;105332;1256;73359;-66
2024/03/08 02:24:05;;;;;;;;;;;;;;;1.58;59.22;99894.67;105429;1262;68834;-72
2024/03/08 02:29:52;;;;;;;;;;;;;;;1.56;58.93;99895.99;102838;1295;599082;-75
2024/03/08 02:32:20;;;;;;;;;;;;;;;1.51;58.91;99892.20;104859;1264;61938;-66
2024/03/08 02:34:47;;;;;;;;;;;;;;;1.37;59.64;99891.91;105038;1269;59139;-65
2024/03/08 02:37:15;;;;;;;;;;;;;;;1.40;59.66;99892.34;104834;1272;71375;-69
2024/03/08 02:39:43;;;;;;;;;;;;;;;1.36;59.90;99890.52;105209;1264;68613;-70
2024/03/08 02:42:11;;;;;;;;;;;;;;;1.34;60.83;99889.11;104811;1272;73411;-66
2024/03/08 02:44:43;;;;;;;;;;;;;;;1.43;60.76;99884.33;105203;1262;148888;-69
2024/03/08 02:47:11;;;;;;;;;;;;;;;1.52;60.29;99883.82;105250;1262;59272;-68
2024/03/08 02:49:38;;;;;;;;;;;;;;;1.44;60.04;99887.30;105203;1264;71971;-69
2024/03/08 02:52:07;;;;;;;;;;;;;;;1.31;59.88;99890.45;105232;1264;67737;-66
2024/03/08 02:54:36;;;;;;;;;;;;;;;1.20;59.97;99888.85;105134;1267;72652;-69
2024/03/08 02:57:04;;;;;;;;;;;;;;;1.15;60.08;99889.64;104762;1266;60756;-75
2024/03/08 02:59:32;;;;;;;;;;;;;;;1.11;60.44;99885.44;104777;1267;60496;-68
2024/03/08 03:01:59;;;;;;;;;;;;;;;1.12;61.03;99880.89;104838;1266;72100;-74
2024/03/08 03:04:27;;;;;;;;;;;;;;;1.10;61.97;99877.86;105348;1266;68839;-70
2024/03/08 03:06:55;;;;;;;;;;;;;;;1.23;61.92;99877.82;107955;1266;70666;-69
2024/03/08 03:09:27;;;;;;;;;;;;;;;1.28;62.33;99875.79;104918;1267;59552;-69
2024/03/08 03:11:55;;;;;;;;;;;;;;;1.43;61.72;99875.36;104885;1267;60147;-67
2024/03/08 03:14:22;;;;;;;;;;;;;;;1.45;61.18;99872.95;104853;1272;73201;-67
2024/03/08 03:16:50;;;;;;;;;;;;;;;1.37;60.90;99875.80;104835;1267;68432;-70
2024/03/08 03:19:17;;;;;;;;;;;;;;;1.28;61.22;99876.33;104839;1267;71467;-65
2024/03/08 03:21:45;;;;;;;;;;;;;;;1.25;61.91;99869.91;104933;1267;61831;-66
2024/03/08 03:24:16;;;;;;;;;;;;;;;1.31;61.40;99869.41;104922;1267;60450;-69
2024/03/08 03:26:44;;;;;;;;;;;;;;;1.27;61.05;99869.69;105007;1264;72562;-73
2024/03/08 03:29:11;;;;;;;;;;;;;;;1.28;61.04;99866.08;104848;1269;67448;-68
2024/03/08 03:31:40;;;;;;;;;;;;;;;1.37;60.81;99861.80;105065;1268;70833;-75
2024/03/08 03:34:08;;;;;;;;;;;;;;;1.37;60.66;99863.19;105896;1254;62485;-71
2024/03/08 03:36:38;;;;;;;;;;;;;;;1.37;60.48;99863.42;105885;1254;59920;-71
2024/03/08 03:39:10;;;;;;;;;;;;;;;1.26;60.44;99865.45;105904;1254;71308;-71
2024/03/08 03:41:38;;;;;;;;;;;;;;;1.25;60.91;99866.79;105723;1260;69576;-68
2024/03/08 03:44:06;;;;;;;;;;;;;;;1.26;61.51;99870.70;105264;1257;73168;-70
2024/03/08 03:46:34;;;;;;;;;;;;;;;1.30;61.00;99866.23;105758;1254;61857;-69
2024/03/08 03:49:03;;;;;;;;;;;;;;;1.23;60.66;99869.45;105768;1254;59646;-66
2024/03/08 03:51:31;;;;;;;;;;;;;;;1.18;60.24;99867.10;105871;1254;73426;-68
2024/03/08 03:53:58;;;;;;;;;;;;;;;1.09;60.20;99868.86;105762;1257;67292;-70
2024/03/08 03:56:26;;;;;;;;;;;;;;;1.00;60.31;99863.55;105774;1254;72833;-72
2024/03/08 03:58:54;;;;;;;;;;;;;;;1.06;59.97;99864.80;105428;1254;62376;-65
2024/03/08 04:01:22;;;;;;;;;;;;;;;1.00;60.40;99861.55;105586;1254;59955;-75
2024/03/08 04:03:49;;;;;;;;;;;;;;;0.95;61.08;99853.15;105645;1255;72019;-66
2024/03/08 04:06:17;;;;;;;;;;;;;;;0.97;60.76;99857.48;105818;1256;68018;-69
2024/03/08 04:08:45;;;;;;;;;;;;;;;1.01;60.62;99857.25;105671;1257;73353;-67
2024/03/08 04:11:13;;;;;;;;;;;;;;;0.97;60.45;99859.06;105885;1254;60857;-67
2024/03/08 04:13:40;;;;;;;;;;;;;;;0.88;60.61;99857.46;105756;1254;60570;-68
2024/03/08 04:16:08;;;;;;;;;;;;;;;0.85;60.59;99857.33;105618;1253;71531;-70
2024/03/08 04:18:35;;;;;;;;;;;;;;;0.76;60.53;99853.76;105830;1256;69255;-70
2024/03/08 04:21:07;;;;;;;;;;;;;;;0.78;60.38;99851.45;105834;1255;73301;-65
2024/03/08 04:23:37;;;;;;;;;;;;;;;0.71;60.83;99849.00;105655;1254;62504;-69
2024/03/08 04:26:06;;;;;;;;;;;;;;;0.68;61.79;99845.39;105797;1256;59616;-73
2024/03/08 04:28:33;;;;;;;;;;;;;;;0.67;62.37;99844.45;105604;1253;72052;-70
2024/03/08 04:31:01;;;;;;;;;;;;;;;0.69;62.51;99845.36;105759;1255;67812;-67
2024/03/08 04:33:29;;;;;;;;;;;;;;;0.78;62.39;99848.63;105849;1255;71630;-70
2024/03/08 04:35:57;;;;;;;;;;;;;;;0.81;61.86;99847.85;105670;1254;60870;-69
2024/03/08 04:38:25;;;;;;;;;;;;;;;0.78;61.75;99850.77;105858;1254;59881;-68
2024/03/08 04:40:53;;;;;;;;;;;;;;;0.72;61.75;99850.44;105886;1257;71889;-66
2024/03/08 04:43:21;;;;;;;;;;;;;;;0.70;61.54;99850.99;105920;1256;67905;-67
2024/03/08 04:45:49;;;;;;;;;;;;;;;0.76;61.62;99848.05;105870;1257;72078;-69
2024/03/08 04:48:16;;;;;;;;;;;;;;;0.63;62.40;99847.95;105635;1263;61181;-67
2024/03/08 04:50:44;;;;;;;;;;;;;;;0.50;64.09;99843.32;105881;1254;60611;-69
2024/03/08 04:53:12;;;;;;;;;;;;;;;0.87;63.77;99842.55;105921;1257;72738;-67
2024/03/08 04:55:40;;;;;;;;;;;;;;;1.08;63.65;99840.29;105840;1254;69141;-77
2024/03/08 04:58:07;;;;;;;;;;;;;;;1.24;63.80;99838.98;105751;1254;73342;-70
2024/03/08 05:00:35;;;;;;;;;;;;;;;1.47;63.89;99838.70;105723;1257;60559;-73
2024/03/08 05:03:03;;;;;;;;;;;;;;;1.78;63.45;99834.50;105836;1258;60024;-71
2024/03/08 05:05:32;;;;;;;;;;;;;;;2.15;62.49;99841.32;105855;1252;71704;-69
2024/03/08 05:08:01;;;;;;;;;;;;;;;2.50;61.31;99845.86;105895;1253;68746;-68
2024/03/08 05:10:29;;;;;;;;;;;;;;;2.82;59.93;99846.59;105912;1254;72687;-69
2024/03/08 05:12:56;;;;;;;;;;;;;;;3.18;59.10;99849.56;105623;1253;62064;-70
2024/03/08 05:15:24;;;;;;;;;;;;;;;3.47;58.63;99852.39;105848;1257;60474;-69
2024/03/08 05:17:51;;;;;;;;;;;;;;;3.69;57.64;99851.70;105750;1256;73254;-69
2024/03/08 05:20:19;;;;;;;;;;;;;;;3.85;56.58;99851.49;105614;1257;69649;-76
2024/03/08 05:22:47;;;;;;;;;;;;;;;4.02;55.89;99849.47;105631;1257;71810;-73
2024/03/08 05:25:15;;;;;;;;;;;;;;;4.36;55.26;99856.77;105351;1255;61724;-70
2024/03/08 05:27:43;;;;;;;;;;;;;;;4.65;54.57;99855.55;105735;1255;60482;-71
2024/03/08 05:30:14;;;;;;;;;;;;;;;5.02;53.67;99857.05;105821;1259;71892;-74
2024/03/08 05:32:45;;;;;;;;;;;;;;;5.37;52.62;99859.50;105567;1260;68736;-71
2024/03/08 05:35:16;;;;;;;;;;;;;;;5.63;51.68;99856.79;105557;1257;74938;-72
2024/03/08 05:37:44;;;;;;;;;;;;;;;5.90;51.14;99860.15;105614;1260;60087;-73
2024/03/08 05:40:11;;;;;;;;;;;;;;;5.99;50.72;99855.47;105545;1257;59666;-73
2024/03/08 05:42:44;;;;;;;;;;;;;;;5.96;50.84;99859.10;105663;1259;72977;-73
2024/03/08 05:45:12;;;;;;;;;;;;;;;6.18;50.42;99860.09;105646;1261;68512;-70
2024/03/08 05:47:40;;;;;;;;;;;;;;;6.50;49.90;99858.10;105671;1257;70933;-76
2024/03/08 05:50:10;;;;;;;;;;;;;;;6.73;49.55;99852.11;105395;1256;60510;-74
2024/03/08 05:52:38;;;;;;;;;;;;;;;6.70;49.19;99855.14;105857;1254;59656;-73
2024/03/08 05:55:09;;;;;;;;;;;;;;;6.66;48.98;99851.50;105649;1259;73207;-77
2024/03/08 05:57:40;;;;;;;;;;;;;;;6.45;49.15;99852.17;105555;1260;68426;-78
2024/03/08 06:00:15;;;;;;;;;;;;;;;6.40;49.86;99856.58;105755;1254;72681;-75
2024/03/08 06:02:43;;;;;;;;;;;;;;;6.64;49.18;99855.82;105795;1254;61095;-73
2024/03/08 06:05:11;;;;;;;;;;;;;;;7.06;48.43;99857.05;105725;1253;59781;-74
2024/03/08 06:07:40;;;;;;;;;;;;;;;7.09;47.55;99860.27;105991;1257;73054;-73
2024/03/08 06:10:14;;;;;;;;;;;;;;;7.21;47.66;99856.55;105806;1257;68521;-72
2024/03/08 06:12:42;;;;;;;;;;;;;;;7.29;47.37;99858.02;105851;1260;71751;-71
2024/03/08 06:15:10;;;;;;;;;;;;;;;7.39;47.72;99858.83;105794;1254;60929;-71
2024/03/08 06:17:38;;;;;;;;;;;;;;;7.77;46.44;99859.23;105922;1252;60142;-71
2024/03/08 06:20:10;;;;;;;;;;;;;;;8.02;46.01;99863.08;105954;1256;73062;-75
2024/03/08 06:22:40;;;;;;;;;;;;;;;7.63;46.19;99866.27;106017;1251;69172;-70
2024/03/08 06:25:08;;;;;;;;;;;;;;;7.77;46.71;99866.70;105970;1251;72829;-70
2024/03/08 06:27:36;;;;;;;;;;;;;;;7.96;45.86;99874.74;105940;1256;61038;-75
2024/03/08 06:30:04;;;;;;;;;;;;;;;8.01;45.40;99874.38;105641;1255;59693;-71
2024/03/08 06:32:35;;;;;;;;;;;;;;;7.87;45.98;99875.47;105612;1258;72422;-76
2024/03/08 06:35:06;;;;;;;;;;;;;;;8.18;45.81;99874.45;105749;1259;69116;-68
2024/03/08 06:37:33;;;;;;;;;;;;;;;8.30;44.01;99878.73;105687;1254;73198;-70
2024/03/08 06:40:03;;;;;;;;;;;;;;;7.56;45.99;99873.23;105711;1258;61053;-69
2024/03/08 06:42:36;;;;;;;;;;;;;;;8.05;45.77;99878.34;105737;1254;60528;-70
2024/03/08 06:45:04;;;;;;;;;;;;;;;8.60;44.66;99878.62;105666;1259;74164;-69
2024/03/08 06:47:33;;;;;;;;;;;;;;;9.06;43.57;99880.86;105699;1255;68513;-69
2024/03/08 06:50:01;;;;;;;;;;;;;;;8.81;43.53;99878.70;105735;1258;73365;-68
2024/03/08 06:52:29;;;;;;;;;;;;;;;8.69;43.74;99876.58;105650;1260;61669;-68
2024/03/08 06:54:57;;;;;;;;;;;;;;;8.71;43.54;99875.59;105696;1260;60589;-69
2024/03/08 06:57:24;;;;;;;;;;;;;;;8.71;44.30;99869.13;105662;1260;73930;-75
2024/03/08 06:59:52;;;;;;;;;;;;;;;8.58;43.37;99864.88;105455;1259;68818;-69
2024/03/08 07:02:24;;;;;;;;;;;;;;;9.18;42.89;99867.70;105747;1253;73322;-73
2024/03/08 07:04:52;;;;;;;;;;;;;;;9.54;41.68;99869.11;105988;1257;60562;-68
2024/03/08 07:07:20;;;;;;;;;;;;;;;9.52;41.66;99868.38;105890;1257;60341;-69
2024/03/08 07:09:49;;;;;;;;;;;;;;;10.01;41.59;99866.80;105884;1252;73783;-70
2024/03/08 07:12:17;;;;;;;;;;;;;;;10.26;40.72;99868.25;105906;1253;68841;-71
2024/03/08 07:14:45;;;;;;;;;;;;;;;9.86;40.13;99865.26;105910;1257;72806;-71
2024/03/08 07:17:13;;;;;;;;;;;;;;;9.54;40.85;99864.11;105727;1255;60446;-69
2024/03/08 07:19:40;;;;;;;;;;;;;;;9.70;40.81;99866.19;105916;1256;60338;-71
2024/03/08 07:22:08;;;;;;;;;;;;;;;9.52;40.57;99863.77;105875;1257;74017;-70
2024/03/08 07:27:22;;;;;;;;;;;;;;;9.37;41.52;99858.66;105922;1256;71815;-70
2024/03/08 07:29:50;;;;;;;;;;;;;;;9.36;41.32;99857.82;105800;1254;60418;-71
2024/03/08 07:32:21;;;;;;;;;;;;;;;9.55;41.33;99857.70;105624;1257;60512;-75
2024/03/08 07:34:50;;;;;;;;;;;;;;;9.59;41.03;99853.87;105942;1257;73848;-70
2024/03/08 07:37:19;;;;;;;;;;;;;;;9.76;40.87;99854.36;105782;1259;68651;-71
2024/03/08 07:39:46;;;;;;;;;;;;;;;10.14;40.78;99851.20;105947;1257;72680;-68
2024/03/08 07:42:14;;;;;;;;;;;;;;;10.12;40.03;99852.98;105865;1253;60658;-72
2024/03/08 07:44:42;;;;;;;;;;;;;;;10.35;40.11;99857.92;105908;1257;60546;-69
2024/03/08 07:47:10;;;;;;;;;;;;;;;10.84;39.13;99861.65;105866;1254;72803;-69
2024/03/08 07:49:38;;;;;;;;;;;;;;;11.15;38.60;99858.09;105709;1256;68675;-69
2024/03/08 07:52:07;;;;;;;;;;;;;;;11.22;38.52;99854.52;105901;1257;72967;-69
2024/03/08 07:54:35;;;;;;;;;;;;;;;11.05;38.14;99850.06;105674;1255;61058;-70
2024/03/08 07:57:03;;;;;;;;;;;;;;;10.85;38.44;99847.60;105710;1260;60354;-75
2024/03/08 07:59:30;;;;;;;;;;;;;;;11.35;38.29;99850.95;105768;1257;73143;-70
2024/03/08 08:01:59;;;;;;;;;;;;;;;11.74;37.52;99847.17;105683;1257;69186;-74
